createdAt,value
2023-04-09T00:02:55.705Z,65.58
2023-04-09T00:05:58.480Z,65.51
2023-04-09T00:09:01.171Z,65.45
2023-04-09T00:12:03.916Z,65.32
2023-04-09T00:15:09.653Z,65.74
2023-04-09T00:18:14.704Z,65.73
2023-04-09T00:21:21.224Z,66.30
2023-04-09T00:24:23.890Z,66.47
2023-04-09T00:27:26.606Z,66.22
2023-04-09T00:30:30.550Z,65.99
2023-04-09T00:33:33.252Z,65.93
2023-04-09T00:36:36.340Z,65.64
2023-04-09T00:39:39.060Z,65.56
2023-04-09T00:42:42.179Z,65.59
2023-04-09T00:45:45.592Z,65.49
2023-04-09T00:48:48.332Z,65.79
2023-04-09T00:51:52.737Z,65.89
2023-04-09T00:54:55.499Z,65.88
2023-04-09T00:57:58.268Z,65.65
2023-04-09T01:01:01.128Z,65.50
2023-04-09T01:04:04.406Z,65.40
2023-04-09T01:07:20.352Z,65.39
2023-04-09T01:10:31.084Z,65.27
2023-04-09T01:13:53.515Z,65.43
2023-04-09T01:17:04.863Z,65.65
2023-04-09T01:20:18.808Z,65.62
2023-04-09T01:23:47.619Z,65.66
2023-04-09T01:27:07.949Z,65.63
2023-04-09T01:30:11.975Z,65.41
2023-04-09T01:33:18.325Z,65.34
2023-04-09T01:36:21.893Z,65.49
2023-04-09T01:39:25.684Z,65.57
2023-04-09T01:42:29.770Z,65.50
2023-04-09T01:45:33.170Z,65.44
2023-04-09T01:48:36.816Z,65.28
2023-04-09T01:51:39.778Z,65.20
2023-04-09T01:54:43.172Z,65.06
2023-04-09T01:57:46.138Z,65.09
2023-04-09T02:00:50.088Z,65.08
2023-04-09T02:04:03.452Z,65.01
2023-04-09T02:07:10.185Z,65.25
2023-04-09T02:10:14.295Z,65.42
2023-04-09T02:13:19.023Z,65.29
2023-04-09T02:16:22.883Z,65.31
2023-04-09T02:19:25.996Z,65.24
2023-04-09T02:22:28.692Z,65.06
2023-04-09T02:25:31.927Z,65.16
2023-04-09T02:28:34.923Z,64.93
2023-04-09T02:31:37.649Z,65.02
2023-04-09T02:34:40.688Z,65.11
2023-04-09T02:37:43.422Z,65.72
2023-04-09T02:40:46.112Z,66.04
2023-04-09T02:43:49.142Z,66.06
2023-04-09T02:46:54.945Z,66.01
2023-04-09T02:49:57.627Z,65.80
2023-04-09T02:53:00.435Z,65.71
2023-04-09T02:56:03.620Z,65.86
2023-04-09T02:59:06.433Z,66.05
2023-04-09T03:02:09.423Z,65.78
2023-04-09T03:05:12.285Z,66.17
2023-04-09T03:08:15.049Z,66.21
2023-04-09T03:11:18.066Z,66.25
2023-04-09T03:14:20.744Z,66.17
2023-04-09T03:17:25.851Z,65.91
2023-04-09T03:20:28.477Z,66.05
2023-04-09T03:23:35.173Z,66.15
2023-04-09T03:26:38.682Z,66.65
2023-04-09T03:29:41.669Z,67.46
2023-04-09T03:32:44.510Z,67.88
2023-04-09T03:35:47.300Z,67.96
2023-04-09T03:38:50.570Z,67.52
2023-04-09T03:41:54.730Z,67.39
2023-04-09T03:44:57.443Z,67.12
2023-04-09T03:48:00.238Z,67.16
2023-04-09T03:51:03.020Z,67.36
2023-04-09T03:54:05.761Z,67.15
2023-04-09T03:57:08.488Z,67.39
2023-04-09T04:00:11.891Z,67.58
2023-04-09T04:03:16.513Z,67.53
2023-04-09T04:06:20.449Z,67.47
2023-04-09T04:09:26.902Z,67.27
2023-04-09T04:12:31.964Z,67.22
2023-04-09T04:15:42.177Z,67.46
2023-04-09T04:18:44.942Z,67.68
2023-04-09T04:21:49.639Z,67.79
2023-04-09T04:24:52.331Z,68.79
2023-04-09T04:27:55.551Z,69.00
2023-04-09T04:30:59.782Z,69.49
2023-04-09T04:34:02.481Z,69.69
2023-04-09T04:37:05.358Z,70.16
2023-04-09T04:40:08.938Z,70.43
2023-04-09T04:43:11.701Z,70.61
2023-04-09T04:46:14.416Z,70.40
2023-04-09T04:49:17.285Z,70.27
2023-04-09T04:52:20.020Z,69.72
2023-04-09T04:55:22.713Z,69.45
2023-04-09T04:58:26.092Z,69.28
2023-04-09T05:01:28.872Z,69.33
2023-04-09T05:04:33.790Z,69.36
2023-04-09T05:07:36.760Z,70.02
2023-04-09T05:10:46.936Z,69.52
2023-04-09T05:13:49.576Z,69.02
2023-04-09T05:16:52.406Z,69.68
2023-04-09T05:19:55.253Z,70.17
2023-04-09T05:22:57.889Z,70.19
2023-04-09T05:26:00.618Z,70.19
2023-04-09T05:29:03.370Z,71.26
2023-04-09T05:32:06.998Z,71.28
2023-04-09T05:35:09.734Z,71.38
2023-04-09T05:38:13.867Z,72.15
2023-04-09T05:41:16.647Z,71.48
2023-04-09T05:44:27.703Z,72.27
2023-04-09T05:47:30.633Z,73.71
2023-04-09T05:50:43.629Z,74.00
2023-04-09T05:53:50.454Z,74.07
2023-04-09T05:56:53.330Z,73.47
2023-04-09T05:59:56.469Z,73.31
2023-04-09T06:02:59.368Z,73.68
2023-04-09T06:06:08.416Z,73.05
2023-04-09T06:09:17.605Z,72.59
2023-04-09T06:12:20.516Z,72.32
2023-04-09T06:15:27.610Z,72.20
2023-04-09T06:18:30.349Z,72.33
2023-04-09T06:21:33.341Z,72.51
2023-04-09T06:24:38.436Z,72.19
2023-04-09T06:27:41.052Z,72.44
2023-04-09T06:30:43.794Z,72.83
2023-04-09T06:33:46.481Z,73.19
2023-04-09T06:36:49.185Z,72.93
2023-04-09T06:40:00.412Z,73.12
2023-04-09T06:43:05.082Z,72.98
2023-04-09T06:46:07.930Z,73.48
2023-04-09T06:49:11.138Z,73.71
2023-04-09T06:52:13.832Z,73.36
2023-04-09T06:55:16.636Z,72.88
2023-04-09T06:58:19.416Z,72.49
2023-04-09T07:01:22.232Z,72.61
2023-04-09T07:04:25.099Z,72.89
2023-04-09T07:07:27.976Z,73.34
2023-04-09T07:10:30.654Z,73.32
2023-04-09T07:13:33.626Z,72.97
2023-04-09T07:16:36.454Z,73.26
2023-04-09T07:19:39.175Z,73.11
2023-04-09T07:22:41.934Z,72.77
2023-04-09T07:25:44.621Z,72.72
2023-04-09T07:28:47.272Z,72.65
2023-04-09T07:31:50.018Z,73.10
2023-04-09T07:34:53.982Z,72.99
2023-04-09T07:37:57.378Z,72.69
2023-04-09T07:41:00.380Z,72.51
2023-04-09T07:44:03.608Z,72.30
2023-04-09T07:47:08.678Z,72.45
2023-04-09T07:50:12.363Z,72.59
2023-04-09T07:53:15.666Z,72.56
2023-04-09T07:56:18.436Z,72.42
2023-04-09T07:59:21.410Z,72.92
2023-04-09T08:02:24.457Z,74.10
2023-04-09T08:05:28.431Z,74.59
2023-04-09T08:08:31.130Z,74.96
2023-04-09T08:11:33.890Z,75.10
2023-04-09T08:14:36.828Z,74.45
2023-04-09T08:17:40.715Z,74.40
2023-04-09T08:20:45.579Z,74.25
2023-04-09T08:23:48.599Z,73.89
2023-04-09T08:26:51.330Z,73.55
2023-04-09T08:29:54.018Z,73.58
2023-04-09T08:32:56.743Z,73.61
2023-04-09T08:36:00.836Z,73.62
2023-04-09T08:39:05.558Z,73.42
2023-04-09T08:42:08.937Z,73.15
2023-04-09T08:45:13.092Z,73.21
2023-04-09T08:48:21.339Z,73.10
2023-04-09T08:51:24.727Z,72.95
2023-04-09T08:54:42.007Z,72.92
2023-04-09T08:57:44.844Z,72.79
2023-04-09T09:00:47.766Z,72.71
2023-04-09T09:03:56.840Z,72.37
2023-04-09T09:07:06.853Z,72.57
2023-04-09T09:10:09.914Z,72.58
2023-04-09T09:13:22.627Z,72.50
2023-04-09T09:16:34.802Z,72.48
2023-04-09T09:19:37.622Z,72.33
2023-04-09T09:22:54.906Z,72.20
2023-04-09T09:26:00.936Z,72.32
2023-04-09T09:29:05.879Z,72.24
2023-04-09T09:32:13.641Z,72.11
2023-04-09T09:35:16.463Z,71.94
2023-04-09T09:38:19.189Z,71.93
2023-04-09T09:41:22.231Z,71.87
2023-04-09T09:44:33.433Z,71.98
2023-04-09T09:47:37.627Z,71.90
2023-04-09T09:50:44.642Z,72.02
2023-04-09T09:53:52.521Z,71.82
2023-04-09T09:57:02.126Z,71.64
2023-04-09T10:00:06.841Z,71.80
2023-04-09T10:03:20.065Z,71.75
2023-04-09T10:06:23.950Z,72.02
2023-04-09T10:09:28.241Z,71.99
2023-04-09T10:12:31.247Z,71.99
2023-04-09T10:15:33.993Z,71.84
2023-04-09T10:18:36.807Z,71.92
2023-04-09T10:21:53.542Z,71.81
2023-04-09T10:24:58.173Z,71.76
2023-04-09T10:28:02.613Z,71.59
2023-04-09T10:31:07.811Z,71.68
2023-04-09T10:34:12.440Z,71.60
2023-04-09T10:37:20.616Z,71.55
2023-04-09T10:40:23.392Z,71.50
2023-04-09T10:43:26.059Z,71.55
2023-04-09T10:46:30.996Z,71.55
2023-04-09T10:49:38.240Z,71.43
2023-04-09T10:52:42.544Z,71.43
2023-04-09T10:55:52.684Z,71.36
2023-04-09T10:58:55.856Z,71.29
2023-04-09T11:01:58.618Z,71.35
2023-04-09T11:05:30.691Z,71.31
2023-04-09T11:08:34.166Z,71.02
2023-04-09T11:11:37.040Z,71.05
2023-04-09T11:14:39.727Z,71.05
2023-04-09T11:17:43.271Z,71.18
2023-04-09T11:20:46.219Z,71.03
2023-04-09T11:23:53.056Z,70.85
2023-04-09T11:26:56.809Z,70.89
2023-04-09T11:30:00.522Z,70.71
2023-04-09T11:33:03.543Z,70.71
2023-04-09T11:36:07.187Z,70.47
2023-04-09T11:39:09.831Z,70.47
2023-04-09T11:42:15.902Z,70.23
2023-04-09T11:45:20.892Z,70.33
2023-04-09T11:48:25.077Z,70.42
2023-04-09T11:51:28.754Z,70.34
2023-04-09T11:54:34.538Z,70.28
2023-04-09T11:57:39.250Z,70.27
2023-04-09T12:00:41.890Z,70.19
2023-04-09T12:03:44.641Z,70.19
2023-04-09T12:06:48.574Z,70.23
2023-04-09T12:09:51.231Z,70.16
2023-04-09T12:12:53.924Z,69.99
2023-04-09T12:15:58.716Z,69.72
2023-04-09T12:19:09.352Z,69.79
2023-04-09T12:22:12.117Z,69.52
2023-04-09T12:25:26.761Z,69.53
2023-04-09T12:28:29.515Z,69.29
2023-04-09T12:31:32.174Z,69.12
2023-04-09T12:34:34.805Z,69.43
2023-04-09T12:37:37.520Z,68.81
2023-04-09T12:40:40.841Z,68.89
2023-04-09T12:43:44.062Z,68.86
2023-04-09T12:46:48.519Z,68.73
2023-04-09T12:49:51.335Z,68.59
2023-04-09T12:52:54.175Z,68.11
2023-04-09T12:55:57.142Z,67.55
2023-04-09T12:58:59.840Z,66.93
2023-04-09T13:02:03.347Z,67.40
2023-04-09T13:05:06.789Z,67.60
2023-04-09T13:08:09.466Z,67.64
2023-04-09T13:11:12.043Z,67.91
2023-04-09T13:14:14.678Z,68.01
2023-04-09T13:17:17.399Z,67.98
2023-04-09T13:20:20.877Z,67.95
2023-04-09T13:23:23.492Z,67.54
2023-04-09T13:26:26.456Z,67.56
2023-04-09T13:29:29.542Z,67.75
2023-04-09T13:32:32.463Z,67.82
2023-04-09T13:35:35.115Z,67.82
2023-04-09T13:38:38.422Z,67.70
2023-04-09T13:41:41.116Z,67.55
2023-04-09T13:44:45.652Z,67.10
2023-04-09T13:47:49.469Z,67.18
2023-04-09T13:50:52.193Z,67.30
2023-04-09T13:53:54.843Z,67.18
2023-04-09T13:57:05.905Z,67.23
2023-04-09T14:00:09.192Z,67.13
2023-04-09T14:03:13.256Z,67.08
2023-04-09T14:06:15.987Z,67.43
2023-04-09T14:09:18.524Z,67.29
2023-04-09T14:12:21.277Z,67.17
2023-04-09T14:15:23.864Z,67.13
2023-04-09T14:18:26.528Z,67.08
2023-04-09T14:21:29.308Z,66.95
2023-04-09T14:24:31.968Z,66.98
2023-04-09T14:27:34.568Z,67.16
2023-04-09T14:30:37.194Z,67.05
2023-04-09T14:33:40.773Z,66.60
2023-04-09T14:36:43.396Z,66.56
2023-04-09T14:39:46.114Z,65.76
2023-04-09T14:42:50.245Z,65.26
2023-04-09T14:45:54.433Z,65.76
2023-04-09T14:48:56.994Z,65.71
2023-04-09T14:51:59.548Z,65.59
2023-04-09T14:55:02.143Z,65.82
2023-04-09T14:58:07.373Z,65.87
2023-04-09T15:01:10.034Z,65.85
2023-04-09T15:04:12.804Z,65.67
2023-04-09T15:07:18.983Z,65.82
2023-04-09T15:10:21.792Z,65.65
2023-04-09T15:13:24.468Z,65.56
2023-04-09T15:16:28.845Z,65.86
2023-04-09T15:19:32.669Z,65.92
2023-04-09T15:22:35.489Z,65.77
2023-04-09T15:25:39.846Z,65.78
2023-04-09T15:28:42.592Z,65.69
2023-04-09T15:31:45.198Z,65.64
2023-04-09T15:34:47.792Z,65.66
2023-04-09T15:37:51.421Z,65.65
2023-04-09T15:40:56.524Z,65.96
2023-04-09T15:43:59.290Z,66.02
2023-04-09T15:47:01.890Z,65.96
2023-04-09T15:50:04.950Z,65.78
2023-04-09T15:53:07.565Z,65.73
2023-04-09T15:56:15.256Z,65.73
2023-04-09T15:59:19.012Z,65.66
2023-04-09T16:02:22.673Z,65.59
2023-04-09T16:05:26.326Z,65.54
2023-04-09T16:08:28.862Z,65.64
2023-04-09T16:11:40.630Z,65.86
2023-04-09T16:14:43.288Z,65.57
2023-04-09T16:17:46.250Z,65.60
2023-04-09T16:20:56.642Z,65.49
2023-04-09T16:24:00.894Z,65.51
2023-04-09T16:27:17.100Z,65.53
2023-04-09T16:30:19.823Z,65.68
2023-04-09T16:33:22.614Z,65.62
2023-04-09T16:36:26.501Z,65.70
2023-04-09T16:39:30.172Z,65.59
2023-04-09T16:42:32.930Z,65.52
2023-04-09T16:45:35.848Z,65.56
2023-04-09T16:48:41.792Z,65.50
2023-04-09T16:51:44.664Z,65.58
2023-04-09T16:54:47.572Z,65.59
2023-04-09T16:57:50.610Z,65.64
2023-04-09T17:00:53.443Z,65.61
2023-04-09T17:03:56.671Z,65.46
2023-04-09T17:07:01.401Z,65.33
2023-04-09T17:10:05.052Z,65.45
2023-04-09T17:13:12.246Z,65.26
2023-04-09T17:16:15.624Z,65.32
2023-04-09T17:19:19.719Z,65.28
2023-04-09T17:22:29.179Z,65.49
2023-04-09T17:25:31.828Z,65.51
2023-04-09T17:28:34.458Z,65.44
2023-04-09T17:31:38.773Z,65.44
2023-04-09T17:34:41.548Z,65.52
2023-04-09T17:37:44.214Z,65.52
2023-04-09T17:40:48.065Z,65.67
2023-04-09T17:43:50.897Z,65.96
2023-04-09T17:46:53.988Z,66.27
2023-04-09T17:49:56.850Z,66.32
2023-04-09T17:52:59.455Z,66.22
2023-04-09T17:56:04.052Z,66.34
2023-04-09T17:59:07.268Z,66.18
2023-04-09T18:02:10.710Z,66.33
2023-04-09T18:05:13.810Z,66.36
2023-04-09T18:08:17.508Z,66.51
2023-04-09T18:11:21.211Z,66.84
2023-04-09T18:14:23.952Z,66.90
2023-04-09T18:17:26.726Z,66.89
2023-04-09T18:20:29.834Z,66.79
2023-04-09T18:23:32.970Z,66.81
2023-04-09T18:26:36.832Z,66.81
2023-04-09T18:29:39.880Z,66.89
2023-04-09T18:32:43.631Z,67.13
2023-04-09T18:35:46.556Z,67.15
2023-04-09T18:38:49.559Z,67.35
2023-04-09T18:41:52.289Z,67.27
2023-04-09T18:44:55.216Z,67.21
2023-04-09T18:47:57.836Z,67.20
2023-04-09T18:51:03.161Z,67.12
2023-04-09T18:54:06.505Z,67.19
2023-04-09T18:57:09.530Z,67.39
2023-04-09T19:00:12.660Z,67.51
2023-04-09T19:03:17.081Z,67.55
2023-04-09T19:06:20.527Z,67.45
2023-04-09T19:09:23.729Z,67.48
2023-04-09T19:12:29.708Z,67.45
2023-04-09T19:15:38.490Z,67.36
2023-04-09T19:18:41.439Z,67.48
2023-04-09T19:21:44.041Z,67.67
2023-04-09T19:24:47.080Z,67.84
2023-04-09T19:27:49.847Z,67.86
2023-04-09T19:30:53.170Z,67.88
2023-04-09T19:33:58.319Z,67.71
2023-04-09T19:37:02.819Z,67.70
2023-04-09T19:40:07.889Z,67.73
2023-04-09T19:43:11.189Z,67.81
2023-04-09T19:46:13.751Z,67.95
2023-04-09T19:49:16.779Z,68.06
2023-04-09T19:56:10.525Z,68.08
2023-04-09T19:59:13.209Z,67.90
2023-04-09T20:02:16.206Z,68.03
2023-04-09T20:05:34.497Z,67.86
2023-04-09T20:08:38.117Z,68.24
2023-04-09T20:11:42.252Z,68.36
2023-04-09T20:14:51.098Z,68.20
2023-04-09T20:17:53.855Z,68.18
2023-04-09T20:20:56.603Z,68.86
2023-04-09T20:23:59.271Z,69.64
2023-04-09T20:27:02.249Z,69.68
2023-04-09T20:30:06.287Z,69.46
2023-04-09T20:33:09.083Z,69.39
2023-04-09T20:36:19.250Z,69.38
2023-04-09T20:39:22.597Z,69.28
2023-04-09T20:42:25.261Z,69.14
2023-04-09T20:45:27.955Z,68.99
2023-04-09T20:48:34.007Z,69.16
2023-04-09T20:51:37.024Z,69.28
2023-04-09T20:54:49.873Z,69.33
2023-04-09T20:57:56.528Z,69.18
2023-04-09T21:01:09.903Z,69.10
2023-04-09T21:04:13.028Z,69.04
2023-04-09T21:07:16.320Z,69.04
2023-04-09T21:10:19.152Z,69.10
2023-04-09T21:13:23.418Z,69.26
2023-04-09T21:16:29.911Z,69.27
2023-04-09T21:19:32.508Z,69.21
2023-04-09T21:22:35.763Z,69.13
2023-04-09T21:25:38.471Z,69.10
2023-04-09T21:28:41.129Z,69.11
2023-04-09T21:31:43.804Z,69.29
2023-04-09T21:34:46.444Z,69.47
2023-04-09T21:37:53.107Z,69.37
2023-04-09T21:40:55.651Z,69.42
2023-04-09T21:43:58.303Z,69.42
2023-04-09T21:47:01.997Z,69.38
2023-04-09T21:50:05.239Z,69.33
2023-04-09T21:53:08.345Z,69.45
2023-04-09T21:56:10.855Z,69.47
2023-04-09T21:59:13.435Z,69.50
2023-04-09T22:02:16.117Z,69.64
2023-04-09T22:05:18.850Z,69.52
2023-04-09T22:08:21.450Z,69.41
2023-04-09T22:11:28.594Z,69.59
2023-04-09T22:14:32.718Z,69.82
2023-04-09T22:17:35.516Z,69.72
2023-04-09T22:20:38.166Z,69.70
2023-04-09T22:23:40.742Z,69.66
2023-04-09T22:27:02.276Z,69.54
2023-04-09T22:30:06.403Z,69.53
2023-04-09T22:33:09.110Z,69.67
2023-04-09T22:36:12.154Z,69.78
2023-04-09T22:39:14.782Z,69.82
2023-04-09T22:42:17.486Z,69.74
2023-04-09T22:45:20.475Z,69.62
2023-04-09T22:48:23.561Z,69.52
2023-04-09T22:51:26.176Z,69.45
2023-04-09T22:54:30.190Z,69.56
2023-04-09T22:57:32.786Z,69.80
2023-04-09T23:00:35.468Z,69.76
2023-04-09T23:03:38.143Z,69.80
2023-04-09T23:06:40.786Z,69.62
2023-04-09T23:09:43.366Z,69.64
2023-04-09T23:12:46.299Z,69.79
2023-04-09T23:15:48.858Z,69.94
2023-04-09T23:18:51.675Z,69.86
2023-04-09T23:21:54.308Z,69.86
2023-04-09T23:25:09.549Z,69.75
2023-04-09T23:28:12.127Z,69.77
2023-04-09T23:31:14.711Z,69.90
2023-04-09T23:34:39.974Z,70.05
2023-04-09T23:37:42.698Z,69.93
2023-04-09T23:40:49.852Z,69.92
2023-04-09T23:43:52.839Z,69.92
2023-04-09T23:46:55.762Z,69.74
2023-04-09T23:49:59.678Z,69.99
2023-04-09T23:53:03.957Z,70.04
2023-04-09T23:56:18.550Z,70.02
2023-04-09T23:59:21.157Z,70.00
